sensor_id;sensor_type;location;lat;lon;timestamp;pressure;altitude;pressure_sealevel;temperature;humidity
7918;BME280;4004;42.624;23.386;2023-06-26T00:01:51;93974.75;;;21.35;100.00
7918;BME280;4004;42.624;23.386;2023-06-26T00:04:17;93973.53;;;21.36;100.00
7918;BME280;4004;42.624;23.386;2023-06-26T00:06:44;93981.28;;;21.41;100.00
7918;BME280;4004;42.624;23.386;2023-06-26T00:09:11;93975.81;;;21.41;100.00
7918;BME280;4004;42.624;23.386;2023-06-26T00:11:39;93971.66;;;21.49;100.00
7918;BME280;4004;42.624;23.386;2023-06-26T00:14:06;93973.06;;;21.41;100.00
7918;BME280;4004;42.624;23.386;2023-06-26T00:16:33;93970.91;;;21.32;100.00
7918;BME280;4004;42.624;23.386;2023-06-26T00:19:00;93972.25;;;21.24;100.00
7918;BME280;4004;42.624;23.386;2023-06-26T00:21:26;93971.31;;;21.31;100.00
7918;BME280;4004;42.624;23.386;2023-06-26T00:23:53;93978.31;;;21.32;100.00
7918;BME280;4004;42.624;23.386;2023-06-26T00:26:20;93971.47;;;21.40;100.00
7918;BME280;4004;42.624;23.386;2023-06-26T00:28:48;93968.34;;;21.42;100.00
7918;BME280;4004;42.624;23.386;2023-06-26T00:31:15;93969.44;;;21.28;100.00
7918;BME280;4004;42.624;23.386;2023-06-26T00:33:41;93972.25;;;21.24;100.00
7918;BME280;4004;42.624;23.386;2023-06-26T00:36:08;93959.00;;;21.23;100.00
7918;BME280;4004;42.624;23.386;2023-06-26T00:38:35;93962.19;;;21.21;100.00
7918;BME280;4004;42.624;23.386;2023-06-26T00:41:02;93965.16;;;21.27;100.00
7918;BME280;4004;42.624;23.386;2023-06-26T00:43:29;93962.00;;;21.28;100.00
7918;BME280;4004;42.624;23.386;2023-06-26T00:45:57;93955.94;;;21.21;100.00
7918;BME280;4004;42.624;23.386;2023-06-26T00:48:24;93959.63;;;21.30;100.00
7918;BME280;4004;42.624;23.386;2023-06-26T00:50:51;93959.69;;;21.27;100.00
7918;BME280;4004;42.624;23.386;2023-06-26T00:53:18;93962.84;;;21.25;100.00
7918;BME280;4004;42.624;23.386;2023-06-26T00:55:45;93954.41;;;21.20;100.00
7918;BME280;4004;42.624;23.386;2023-06-26T00:58:12;93956.28;;;21.23;100.00
7918;BME280;4004;42.624;23.386;2023-06-26T01:00:40;93947.22;;;21.26;100.00
7918;BME280;4004;42.624;23.386;2023-06-26T01:03:12;93953.38;;;21.14;100.00
7918;BME280;4004;42.624;23.386;2023-06-26T01:05:38;93948.94;;;21.20;100.00
7918;BME280;4004;42.624;23.386;2023-06-26T01:08:05;93943.06;;;21.21;100.00
7918;BME280;4004;42.624;23.386;2023-06-26T01:10:33;93941.69;;;21.13;100.00
7918;BME280;4004;42.624;23.386;2023-06-26T01:12:59;93945.19;;;21.14;100.00
7918;BME280;4004;42.624;23.386;2023-06-26T01:15:26;93945.28;;;21.10;100.00
7918;BME280;4004;42.624;23.386;2023-06-26T01:17:53;93934.94;;;21.01;100.00
7918;BME280;4004;42.624;23.386;2023-06-26T01:20:30;93938.69;;;20.91;100.00
7918;BME280;4004;42.624;23.386;2023-06-26T01:23:03;93934.16;;;20.84;100.00
7918;BME280;4004;42.624;23.386;2023-06-26T01:25:37;93931.16;;;20.79;100.00
7918;BME280;4004;42.624;23.386;2023-06-26T01:28:09;93930.47;;;20.75;100.00
7918;BME280;4004;42.624;23.386;2023-06-26T01:30:38;93933.56;;;20.77;100.00
7918;BME280;4004;42.624;23.386;2023-06-26T01:33:06;93930.38;;;20.78;100.00
7918;BME280;4004;42.624;23.386;2023-06-26T01:35:33;93932.69;;;20.80;100.00
7918;BME280;4004;42.624;23.386;2023-06-26T01:38:14;93931.47;;;20.81;100.00
7918;BME280;4004;42.624;23.386;2023-06-26T01:40:41;93926.03;;;20.81;100.00
7918;BME280;4004;42.624;23.386;2023-06-26T01:43:15;93922.63;;;20.77;100.00
7918;BME280;4004;42.624;23.386;2023-06-26T01:45:46;93915.78;;;20.68;100.00
7918;BME280;4004;42.624;23.386;2023-06-26T01:48:16;93899.91;;;20.63;100.00
7918;BME280;4004;42.624;23.386;2023-06-26T01:50:45;93914.22;;;20.67;100.00
7918;BME280;4004;42.624;23.386;2023-06-26T01:53:17;93915.94;;;20.61;100.00
7918;BME280;4004;42.624;23.386;2023-06-26T01:55:47;93912.16;;;20.55;100.00
7918;BME280;4004;42.624;23.386;2023-06-26T01:58:19;93926.88;;;20.61;100.00
7918;BME280;4004;42.624;23.386;2023-06-26T02:00:47;93915.88;;;20.45;100.00
7918;BME280;4004;42.624;23.386;2023-06-26T02:03:14;93917.06;;;20.44;100.00
7918;BME280;4004;42.624;23.386;2023-06-26T02:05:40;93917.78;;;20.48;100.00
7918;BME280;4004;42.624;23.386;2023-06-26T02:08:08;93910.69;;;20.50;100.00
7918;BME280;4004;42.624;23.386;2023-06-26T02:10:35;93909.03;;;20.57;100.00
7918;BME280;4004;42.624;23.386;2023-06-26T02:13:02;93909.69;;;20.61;100.00
7918;BME280;4004;42.624;23.386;2023-06-26T02:15:30;93919.47;;;20.42;100.00
7918;BME280;4004;42.624;23.386;2023-06-26T02:17:56;93917.66;;;20.35;100.00
7918;BME280;4004;42.624;23.386;2023-06-26T02:20:23;93918.50;;;20.32;100.00
7918;BME280;4004;42.624;23.386;2023-06-26T02:22:50;93921.06;;;20.39;100.00
7918;BME280;4004;42.624;23.386;2023-06-26T02:25:17;93915.84;;;20.28;100.00
7918;BME280;4004;42.624;23.386;2023-06-26T02:27:44;93922.69;;;20.37;100.00
7918;BME280;4004;42.624;23.386;2023-06-26T02:30:11;93926.78;;;20.45;100.00
7918;BME280;4004;42.624;23.386;2023-06-26T02:32:39;93930.38;;;20.42;100.00
7918;BME280;4004;42.624;23.386;2023-06-26T02:35:07;93923.56;;;20.50;100.00
7918;BME280;4004;42.624;23.386;2023-06-26T02:37:34;93927.69;;;20.58;100.00
7918;BME280;4004;42.624;23.386;2023-06-26T02:40:00;93929.09;;;20.66;100.00
7918;BME280;4004;42.624;23.386;2023-06-26T02:42:28;93931.41;;;20.68;100.00
7918;BME280;4004;42.624;23.386;2023-06-26T02:44:54;93921.25;;;20.68;100.00
7918;BME280;4004;42.624;23.386;2023-06-26T02:47:22;93926.88;;;20.61;100.00
7918;BME280;4004;42.624;23.386;2023-06-26T02:49:50;93922.69;;;20.73;100.00
7918;BME280;4004;42.624;23.386;2023-06-26T02:52:17;93926.72;;;20.68;100.00
7918;BME280;4004;42.624;23.386;2023-06-26T02:54:44;93926.63;;;20.72;100.00
7918;BME280;4004;42.624;23.386;2023-06-26T02:57:11;93935.75;;;20.65;100.00
7918;BME280;4004;42.624;23.386;2023-06-26T02:59:39;93928.50;;;20.59;100.00
7918;BME280;4004;42.624;23.386;2023-06-26T03:02:06;93929.94;;;20.63;100.00
7918;BME280;4004;42.624;23.386;2023-06-26T03:04:33;93931.47;;;20.64;100.00
7918;BME280;4004;42.624;23.386;2023-06-26T03:07:03;93929.84;;;20.67;100.00
7918;BME280;4004;42.624;23.386;2023-06-26T03:09:30;93928.56;;;20.72;100.00
7918;BME280;4004;42.624;23.386;2023-06-26T03:11:57;93936.16;;;20.64;100.00
7918;BME280;4004;42.624;23.386;2023-06-26T03:14:24;93938.81;;;20.67;100.00
7918;BME280;4004;42.624;23.386;2023-06-26T03:16:52;93938.97;;;20.60;100.00
7918;BME280;4004;42.624;23.386;2023-06-26T03:19:23;93935.41;;;20.63;100.00
7918;BME280;4004;42.624;23.386;2023-06-26T03:21:50;93932.94;;;20.69;100.00
7918;BME280;4004;42.624;23.386;2023-06-26T03:24:18;93933.72;;;21.02;100.00
7918;BME280;4004;42.624;23.386;2023-06-26T03:26:44;93933.91;;;21.44;100.00
7918;BME280;4004;42.624;23.386;2023-06-26T03:29:11;93934.47;;;21.98;100.00
7918;BME280;4004;42.624;23.386;2023-06-26T03:31:38;93942.38;;;22.08;100.00
7918;BME280;4004;42.624;23.386;2023-06-26T03:34:05;93940.69;;;21.98;100.00
7918;BME280;4004;42.624;23.386;2023-06-26T03:36:31;93945.25;;;22.18;100.00
7918;BME280;4004;42.624;23.386;2023-06-26T03:38:58;93944.81;;;22.48;100.00
7918;BME280;4004;42.624;23.386;2023-06-26T03:41:27;93943.16;;;22.51;99.97
7918;BME280;4004;42.624;23.386;2023-06-26T03:43:54;93940.53;;;22.60;98.29
7918;BME280;4004;42.624;23.386;2023-06-26T03:46:22;93940.38;;;22.25;100.00
7918;BME280;4004;42.624;23.386;2023-06-26T03:48:49;93941.38;;;22.02;100.00
7918;BME280;4004;42.624;23.386;2023-06-26T03:51:15;93938.03;;;21.82;100.00
7918;BME280;4004;42.624;23.386;2023-06-26T03:53:42;93930.03;;;21.58;100.00
7918;BME280;4004;42.624;23.386;2023-06-26T03:56:09;93933.16;;;21.44;100.00
7918;BME280;4004;42.624;23.386;2023-06-26T03:58:37;93932.84;;;21.38;100.00
7918;BME280;4004;42.624;23.386;2023-06-26T04:01:04;93922.03;;;21.35;100.00
7918;BME280;4004;42.624;23.386;2023-06-26T04:03:31;93929.34;;;21.38;100.00
7918;BME280;4004;42.624;23.386;2023-06-26T04:05:57;93940.03;;;21.32;100.00
7918;BME280;4004;42.624;23.386;2023-06-26T04:08:24;93927.72;;;21.40;100.00
7918;BME280;4004;42.624;23.386;2023-06-26T04:10:51;93925.00;;;21.57;100.00
7918;BME280;4004;42.624;23.386;2023-06-26T04:13:19;93925.84;;;21.70;100.00
7918;BME280;4004;42.624;23.386;2023-06-26T04:15:47;93927.88;;;22.24;100.00
7918;BME280;4004;42.624;23.386;2023-06-26T04:18:13;93929.81;;;23.77;91.56
7918;BME280;4004;42.624;23.386;2023-06-26T04:21:04;93940.31;;;25.39;77.05
7918;BME280;4004;42.624;23.386;2023-06-26T04:23:31;93934.75;;;25.98;70.29
7918;BME280;4004;42.624;23.386;2023-06-26T04:25:58;93936.41;;;25.86;68.96
7918;BME280;4004;42.624;23.386;2023-06-26T04:28:25;93934.38;;;25.59;70.73
7918;BME280;4004;42.624;23.386;2023-06-26T04:30:53;93939.13;;;26.60;65.83
7918;BME280;4004;42.624;23.386;2023-06-26T04:33:20;93957.78;;;27.74;60.77
7918;BME280;4004;42.624;23.386;2023-06-26T04:35:46;93957.97;;;27.95;58.29
7918;BME280;4004;42.624;23.386;2023-06-26T04:38:14;93962.47;;;27.83;58.04
7918;BME280;4004;42.624;23.386;2023-06-26T04:40:41;93968.31;;;27.85;58.02
7918;BME280;4004;42.624;23.386;2023-06-26T04:43:08;93949.50;;;28.37;55.63
7918;BME280;4004;42.624;23.386;2023-06-26T04:45:35;93953.31;;;28.55;54.64
7918;BME280;4004;42.624;23.386;2023-06-26T04:48:03;93950.03;;;27.63;56.90
7918;BME280;4004;42.624;23.386;2023-06-26T04:50:31;93959.25;;;26.94;59.37
7918;BME280;4004;42.624;23.386;2023-06-26T04:52:59;93949.41;;;26.59;61.27
7918;BME280;4004;42.624;23.386;2023-06-26T04:55:25;93961.47;;;26.43;62.31
7918;BME280;4004;42.624;23.386;2023-06-26T04:57:52;93952.94;;;26.14;63.35
7918;BME280;4004;42.624;23.386;2023-06-26T05:00:19;93957.09;;;25.32;67.72
7918;BME280;4004;42.624;23.386;2023-06-26T05:02:46;93958.22;;;24.72;71.60
7918;BME280;4004;42.624;23.386;2023-06-26T05:05:14;93950.41;;;24.39;74.93
7918;BME280;4004;42.624;23.386;2023-06-26T05:07:41;93945.47;;;24.12;77.46
7918;BME280;4004;42.624;23.386;2023-06-26T05:10:08;93952.47;;;23.91;79.32
7918;BME280;4004;42.624;23.386;2023-06-26T05:12:35;93955.63;;;24.02;79.62
7918;BME280;4004;42.624;23.386;2023-06-26T05:15:02;93959.44;;;24.05;80.17
7918;BME280;4004;42.624;23.386;2023-06-26T05:17:29;93950.25;;;24.20;79.21
7918;BME280;4004;42.624;23.386;2023-06-26T05:19:56;93963.88;;;24.02;79.92
7918;BME280;4004;42.624;23.386;2023-06-26T05:22:25;93959.31;;;23.86;81.11
7918;BME280;4004;42.624;23.386;2023-06-26T05:24:53;93963.41;;;23.69;82.88
7918;BME280;4004;42.624;23.386;2023-06-26T05:27:21;93967.25;;;23.58;83.54
7918;BME280;4004;42.624;23.386;2023-06-26T05:29:49;93970.56;;;23.53;83.96
7918;BME280;4004;42.624;23.386;2023-06-26T05:32:17;93972.78;;;23.46;85.19
7918;BME280;4004;42.624;23.386;2023-06-26T05:34:45;93971.81;;;23.40;86.08
7918;BME280;4004;42.624;23.386;2023-06-26T05:37:14;93974.78;;;23.20;87.71
7918;BME280;4004;42.624;23.386;2023-06-26T05:39:45;93971.16;;;23.10;88.82
7918;BME280;4004;42.624;23.386;2023-06-26T05:42:12;93975.44;;;23.24;87.83
7918;BME280;4004;42.624;23.386;2023-06-26T05:44:39;93967.41;;;23.29;87.40
7918;BME280;4004;42.624;23.386;2023-06-26T05:47:06;93971.16;;;23.23;88.33
7918;BME280;4004;42.624;23.386;2023-06-26T05:49:33;93968.44;;;23.70;86.39
7918;BME280;4004;42.624;23.386;2023-06-26T05:52:00;93965.44;;;24.34;82.76
7918;BME280;4004;42.624;23.386;2023-06-26T05:54:27;93973.97;;;25.12;76.77
7918;BME280;4004;42.624;23.386;2023-06-26T05:56:56;93984.66;;;25.41;72.73
7918;BME280;4004;42.624;23.386;2023-06-26T05:59:25;93979.66;;;25.17;73.19
7918;BME280;4004;42.624;23.386;2023-06-26T06:01:53;93978.63;;;24.84;74.53
7918;BME280;4004;42.624;23.386;2023-06-26T06:04:19;93984.53;;;24.51;77.59
7918;BME280;4004;42.624;23.386;2023-06-26T06:06:46;93974.75;;;24.50;78.33
7918;BME280;4004;42.624;23.386;2023-06-26T06:09:13;93974.66;;;24.40;79.19
7918;BME280;4004;42.624;23.386;2023-06-26T06:11:40;93981.16;;;24.12;80.08
7918;BME280;4004;42.624;23.386;2023-06-26T06:14:09;93973.50;;;24.07;81.12
7918;BME280;4004;42.624;23.386;2023-06-26T06:16:35;93980.94;;;24.19;80.46
7918;BME280;4004;42.624;23.386;2023-06-26T06:19:03;93975.44;;;24.19;81.38
7918;BME280;4004;42.624;23.386;2023-06-26T06:21:32;93975.09;;;24.61;78.31
7918;BME280;4004;42.624;23.386;2023-06-26T06:23:59;93979.28;;;24.97;74.99
7918;BME280;4004;42.624;23.386;2023-06-26T06:26:26;93980.72;;;25.51;71.43
7918;BME280;4004;42.624;23.386;2023-06-26T06:28:53;93985.22;;;26.32;66.88
7918;BME280;4004;42.624;23.386;2023-06-26T06:31:21;93974.97;;;26.60;64.33
7918;BME280;4004;42.624;23.386;2023-06-26T06:33:48;93973.25;;;26.72;62.18
7918;BME280;4004;42.624;23.386;2023-06-26T06:36:15;93978.16;;;26.49;62.14
7918;BME280;4004;42.624;23.386;2023-06-26T06:38:42;93980.19;;;27.09;60.95
7918;BME280;4004;42.624;23.386;2023-06-26T06:41:10;93978.06;;;27.71;57.77
7918;BME280;4004;42.624;23.386;2023-06-26T06:43:36;93975.44;;;28.55;55.23
7918;BME280;4004;42.624;23.386;2023-06-26T06:46:03;93970.88;;;28.96;53.61
7918;BME280;4004;42.624;23.386;2023-06-26T06:48:32;93984.44;;;29.09;53.47
7918;BME280;4004;42.624;23.386;2023-06-26T06:50:59;93968.69;;;29.15;52.69
7918;BME280;4004;42.624;23.386;2023-06-26T06:53:25;93989.06;;;29.32;52.20
7918;BME280;4004;42.624;23.386;2023-06-26T06:55:52;93983.00;;;29.13;52.39
7918;BME280;4004;42.624;23.386;2023-06-26T06:58:19;93980.31;;;29.19;52.79
7918;BME280;4004;42.624;23.386;2023-06-26T07:00:46;93985.94;;;29.40;51.37
7918;BME280;4004;42.624;23.386;2023-06-26T07:03:13;93981.34;;;29.37;50.75
7918;BME280;4004;42.624;23.386;2023-06-26T07:05:42;93980.69;;;29.77;50.05
7918;BME280;4004;42.624;23.386;2023-06-26T07:08:08;93983.16;;;30.16;49.42
7918;BME280;4004;42.624;23.386;2023-06-26T07:10:35;93980.06;;;29.88;48.90
7918;BME280;4004;42.624;23.386;2023-06-26T07:13:02;93987.69;;;30.34;48.37
7918;BME280;4004;42.624;23.386;2023-06-26T07:15:29;93978.84;;;30.82;47.66
7918;BME280;4004;42.624;23.386;2023-06-26T07:17:56;93974.66;;;31.24;46.57
7918;BME280;4004;42.624;23.386;2023-06-26T07:20:23;93970.66;;;31.63;45.69
7918;BME280;4004;42.624;23.386;2023-06-26T07:22:52;93982.09;;;31.81;44.47
7918;BME280;4004;42.624;23.386;2023-06-26T07:25:19;93983.31;;;31.69;44.02
7918;BME280;4004;42.624;23.386;2023-06-26T07:27:46;93976.19;;;31.25;44.52
7918;BME280;4004;42.624;23.386;2023-06-26T07:30:13;93981.78;;;30.73;44.88
7918;BME280;4004;42.624;23.386;2023-06-26T07:32:40;93977.25;;;29.67;46.23
7918;BME280;4004;42.624;23.386;2023-06-26T07:35:07;93974.28;;;29.36;47.26
7918;BME280;4004;42.624;23.386;2023-06-26T07:37:34;93968.13;;;28.81;48.17
7918;BME280;4004;42.624;23.386;2023-06-26T07:40:03;93973.56;;;28.90;48.71
7918;BME280;4004;42.624;23.386;2023-06-26T07:42:30;93966.38;;;29.64;47.19
7918;BME280;4004;42.624;23.386;2023-06-26T07:44:57;93970.91;;;29.82;46.67
7918;BME280;4004;42.624;23.386;2023-06-26T07:47:23;93976.59;;;30.13;45.44
7918;BME280;4004;42.624;23.386;2023-06-26T07:49:50;93968.16;;;29.67;46.06
7918;BME280;4004;42.624;23.386;2023-06-26T07:52:18;93971.34;;;29.24;47.74
7918;BME280;4004;42.624;23.386;2023-06-26T07:54:45;93970.63;;;29.09;46.97
7918;BME280;4004;42.624;23.386;2023-06-26T07:57:13;93971.25;;;29.33;47.53
7918;BME280;4004;42.624;23.386;2023-06-26T07:59:40;93962.94;;;29.89;46.59
7918;BME280;4004;42.624;23.386;2023-06-26T08:02:07;93978.19;;;30.20;46.35
7918;BME280;4004;42.624;23.386;2023-06-26T08:04:34;93977.16;;;30.38;44.81
7918;BME280;4004;42.624;23.386;2023-06-26T08:07:01;93974.22;;;29.86;45.86
7918;BME280;4004;42.624;23.386;2023-06-26T08:09:29;93969.94;;;29.85;45.79
7918;BME280;4004;42.624;23.386;2023-06-26T08:11:57;93979.84;;;29.91;45.21
7918;BME280;4004;42.624;23.386;2023-06-26T08:14:25;93968.00;;;29.35;46.83
7918;BME280;4004;42.624;23.386;2023-06-26T08:16:52;93974.34;;;29.41;46.01
7918;BME280;4004;42.624;23.386;2023-06-26T08:19:19;93970.56;;;29.74;45.67
7918;BME280;4004;42.624;23.386;2023-06-26T08:21:46;93967.88;;;29.80;44.97
7918;BME280;4004;42.624;23.386;2023-06-26T08:24:13;93961.00;;;29.75;45.54
7918;BME280;4004;42.624;23.386;2023-06-26T08:26:41;93960.59;;;29.47;45.35
7918;BME280;4004;42.624;23.386;2023-06-26T08:29:08;93971.91;;;28.99;46.16
7918;BME280;4004;42.624;23.386;2023-06-26T08:31:36;93959.91;;;29.17;46.15
7918;BME280;4004;42.624;23.386;2023-06-26T08:34:04;93968.94;;;29.32;46.23
7918;BME280;4004;42.624;23.386;2023-06-26T08:36:31;93962.97;;;29.54;45.76
7918;BME280;4004;42.624;23.386;2023-06-26T08:38:58;93967.72;;;29.33;44.54
7918;BME280;4004;42.624;23.386;2023-06-26T08:41:25;93970.25;;;29.37;44.96
7918;BME280;4004;42.624;23.386;2023-06-26T08:43:52;93967.47;;;29.51;44.30
7918;BME280;4004;42.624;23.386;2023-06-26T08:46:19;93968.09;;;29.26;44.27
7918;BME280;4004;42.624;23.386;2023-06-26T08:48:54;93959.91;;;28.72;45.07
7918;BME280;4004;42.624;23.386;2023-06-26T08:51:24;93968.41;;;28.68;46.44
7918;BME280;4004;42.624;23.386;2023-06-26T08:53:56;93967.19;;;28.84;45.96
7918;BME280;4004;42.624;23.386;2023-06-26T08:56:24;93963.91;;;29.01;45.20
7918;BME280;4004;42.624;23.386;2023-06-26T08:58:52;93941.97;;;29.12;45.70
7918;BME280;4004;42.624;23.386;2023-06-26T09:01:18;93971.44;;;28.85;47.49
7918;BME280;4004;42.624;23.386;2023-06-26T09:03:46;93966.09;;;28.97;46.42
7918;BME280;4004;42.624;23.386;2023-06-26T09:06:15;93966.31;;;28.93;45.81
7918;BME280;4004;42.624;23.386;2023-06-26T09:08:43;93968.19;;;29.17;45.01
7918;BME280;4004;42.624;23.386;2023-06-26T09:11:10;93962.84;;;29.28;45.31
7918;BME280;4004;42.624;23.386;2023-06-26T09:13:37;93954.06;;;29.29;44.74
7918;BME280;4004;42.624;23.386;2023-06-26T09:16:05;93963.16;;;28.85;44.74
7918;BME280;4004;42.624;23.386;2023-06-26T09:18:33;93958.94;;;28.90;45.34
7918;BME280;4004;42.624;23.386;2023-06-26T09:21:00;93955.63;;;28.71;45.97
7918;BME280;4004;42.624;23.386;2023-06-26T09:23:33;93954.56;;;28.98;45.75
7918;BME280;4004;42.624;23.386;2023-06-26T09:26:02;93957.81;;;29.11;45.66
7918;BME280;4004;42.624;23.386;2023-06-26T09:28:29;93948.34;;;29.18;45.51
7918;BME280;4004;42.624;23.386;2023-06-26T09:31:00;93956.38;;;29.16;44.61
7918;BME280;4004;42.624;23.386;2023-06-26T09:33:27;93953.13;;;29.03;45.95
7918;BME280;4004;42.624;23.386;2023-06-26T09:35:54;93957.44;;;29.04;45.75
7918;BME280;4004;42.624;23.386;2023-06-26T09:38:21;93955.06;;;29.11;45.16
7918;BME280;4004;42.624;23.386;2023-06-26T09:40:49;93951.81;;;29.13;45.10
7918;BME280;4004;42.624;23.386;2023-06-26T09:43:16;93951.25;;;29.09;43.86
7918;BME280;4004;42.624;23.386;2023-06-26T09:45:45;93956.56;;;29.12;44.26
7918;BME280;4004;42.624;23.386;2023-06-26T09:48:14;93950.59;;;29.34;44.57
7918;BME280;4004;42.624;23.386;2023-06-26T09:50:42;93947.59;;;29.03;44.76
7918;BME280;4004;42.624;23.386;2023-06-26T09:53:09;93942.56;;;28.86;45.02
7918;BME280;4004;42.624;23.386;2023-06-26T09:55:37;93945.16;;;28.75;45.93
7918;BME280;4004;42.624;23.386;2023-06-26T09:58:05;93949.34;;;28.56;45.83
7918;BME280;4004;42.624;23.386;2023-06-26T10:00:32;93954.41;;;28.18;46.82
7918;BME280;4004;42.624;23.386;2023-06-26T10:02:59;93958.75;;;27.95;47.65
7918;BME280;4004;42.624;23.386;2023-06-26T10:05:26;93966.78;;;27.84;47.16
7918;BME280;4004;42.624;23.386;2023-06-26T10:07:53;93964.56;;;27.73;48.16
7918;BME280;4004;42.624;23.386;2023-06-26T10:10:22;93960.72;;;27.46;47.80
7918;BME280;4004;42.624;23.386;2023-06-26T10:12:52;93951.47;;;27.25;48.09
7918;BME280;4004;42.624;23.386;2023-06-26T10:15:22;93948.44;;;27.14;47.97
7918;BME280;4004;42.624;23.386;2023-06-26T10:17:50;93949.31;;;27.20;47.96
7918;BME280;4004;42.624;23.386;2023-06-26T10:20:17;93950.78;;;27.06;47.80
7918;BME280;4004;42.624;23.386;2023-06-26T10:22:45;93952.78;;;27.06;47.44
7918;BME280;4004;42.624;23.386;2023-06-26T10:25:17;93948.16;;;27.03;48.39
7918;BME280;4004;42.624;23.386;2023-06-26T10:27:47;93947.03;;;27.19;48.33
7918;BME280;4004;42.624;23.386;2023-06-26T10:30:18;93947.59;;;27.32;47.34
7918;BME280;4004;42.624;23.386;2023-06-26T10:32:49;93954.75;;;27.48;47.30
7918;BME280;4004;42.624;23.386;2023-06-26T10:35:16;93947.56;;;27.41;46.66
7918;BME280;4004;42.624;23.386;2023-06-26T10:37:44;93953.16;;;27.23;46.96
7918;BME280;4004;42.624;23.386;2023-06-26T10:40:12;93948.84;;;26.88;47.72
7918;BME280;4004;42.624;23.386;2023-06-26T10:42:40;93960.09;;;26.66;50.35
7918;BME280;4004;42.624;23.386;2023-06-26T10:45:11;93948.94;;;25.87;55.77
7918;BME280;4004;42.624;23.386;2023-06-26T10:47:40;93934.19;;;25.35;59.30
7918;BME280;4004;42.624;23.386;2023-06-26T10:50:19;93937.75;;;25.04;62.37
7918;BME280;4004;42.624;23.386;2023-06-26T10:53:07;93936.59;;;24.83;59.13
7918;BME280;4004;42.624;23.386;2023-06-26T10:55:34;93939.00;;;24.81;56.45
7918;BME280;4004;42.624;23.386;2023-06-26T10:58:01;93937.09;;;24.91;55.58
7918;BME280;4004;42.624;23.386;2023-06-26T11:00:28;93923.69;;;25.02;54.79
7918;BME280;4004;42.624;23.386;2023-06-26T11:02:55;93930.34;;;25.23;53.52
7918;BME280;4004;42.624;23.386;2023-06-26T11:05:28;93921.34;;;25.41;52.14
7918;BME280;4004;42.624;23.386;2023-06-26T11:08:05;93927.47;;;25.45;51.79
7918;BME280;4004;42.624;23.386;2023-06-26T11:10:50;93925.38;;;25.77;52.37
7918;BME280;4004;42.624;23.386;2023-06-26T11:13:17;93929.22;;;26.07;51.03
7918;BME280;4004;42.624;23.386;2023-06-26T11:15:45;93926.03;;;25.99;51.05
7918;BME280;4004;42.624;23.386;2023-06-26T11:18:13;93920.66;;;25.96;51.75
7918;BME280;4004;42.624;23.386;2023-06-26T11:20:41;93918.97;;;25.89;51.40
7918;BME280;4004;42.624;23.386;2023-06-26T11:23:08;93926.28;;;25.83;52.17
7918;BME280;4004;42.624;23.386;2023-06-26T11:25:35;93920.81;;;26.11;52.16
7918;BME280;4004;42.624;23.386;2023-06-26T11:28:03;93917.72;;;26.27;50.57
7918;BME280;4004;42.624;23.386;2023-06-26T11:30:30;93897.81;;;26.32;49.75
7918;BME280;4004;42.624;23.386;2023-06-26T11:33:04;93926.72;;;26.55;49.40
7918;BME280;4004;42.624;23.386;2023-06-26T11:35:31;93915.06;;;26.60;48.25
7918;BME280;4004;42.624;23.386;2023-06-26T11:38:00;93924.50;;;26.78;47.79
7918;BME280;4004;42.624;23.386;2023-06-26T11:40:29;93916.88;;;26.73;47.80
7918;BME280;4004;42.624;23.386;2023-06-26T11:42:57;93919.06;;;26.59;48.52
7918;BME280;4004;42.624;23.386;2023-06-26T11:45:24;93907.25;;;26.59;49.56
7918;BME280;4004;42.624;23.386;2023-06-26T11:47:51;93925.63;;;26.71;48.52
7918;BME280;4004;42.624;23.386;2023-06-26T11:50:18;93924.09;;;26.52;48.62
7918;BME280;4004;42.624;23.386;2023-06-26T11:52:45;93912.19;;;26.36;48.99
7918;BME280;4004;42.624;23.386;2023-06-26T11:55:20;93925.06;;;26.39;48.33
7918;BME280;4004;42.624;23.386;2023-06-26T11:57:48;93925.34;;;26.51;48.75
7918;BME280;4004;42.624;23.386;2023-06-26T12:00:16;93923.00;;;26.67;49.00
7918;BME280;4004;42.624;23.386;2023-06-26T12:02:44;93910.47;;;26.66;49.63
7918;BME280;4004;42.624;23.386;2023-06-26T12:05:11;93910.88;;;26.74;47.90
7918;BME280;4004;42.624;23.386;2023-06-26T12:07:39;93913.28;;;26.91;47.59
7918;BME280;4004;42.624;23.386;2023-06-26T12:10:06;93921.88;;;26.93;46.91
7918;BME280;4004;42.624;23.386;2023-06-26T12:12:35;93914.72;;;27.10;47.27
7918;BME280;4004;42.624;23.386;2023-06-26T12:15:01;93916.16;;;26.96;47.00
7918;BME280;4004;42.624;23.386;2023-06-26T12:17:29;93910.44;;;26.76;47.51
7918;BME280;4004;42.624;23.386;2023-06-26T12:19:55;93913.50;;;26.78;47.88
7918;BME280;4004;42.624;23.386;2023-06-26T12:22:22;93910.84;;;26.93;47.84
7918;BME280;4004;42.624;23.386;2023-06-26T12:24:49;93902.94;;;26.67;48.66
7918;BME280;4004;42.624;23.386;2023-06-26T12:27:18;93903.84;;;26.73;48.34
7918;BME280;4004;42.624;23.386;2023-06-26T12:29:52;93911.38;;;26.73;47.66
7918;BME280;4004;42.624;23.386;2023-06-26T12:32:19;93901.06;;;26.82;47.89
7918;BME280;4004;42.624;23.386;2023-06-26T12:34:49;93901.47;;;26.90;47.95
7918;BME280;4004;42.624;23.386;2023-06-26T12:37:16;93906.13;;;26.84;47.60
7918;BME280;4004;42.624;23.386;2023-06-26T12:39:47;93906.16;;;26.65;47.00
7918;BME280;4004;42.624;23.386;2023-06-26T12:42:14;93907.06;;;26.72;48.16
7918;BME280;4004;42.624;23.386;2023-06-26T12:44:42;93911.38;;;26.54;47.86
7918;BME280;4004;42.624;23.386;2023-06-26T12:47:10;93902.84;;;26.61;48.19
7918;BME280;4004;42.624;23.386;2023-06-26T12:49:40;93903.09;;;26.63;48.26
7918;BME280;4004;42.624;23.386;2023-06-26T12:52:08;93893.47;;;26.50;48.19
7918;BME280;4004;42.624;23.386;2023-06-26T12:54:36;93895.94;;;26.57;48.18
7918;BME280;4004;42.624;23.386;2023-06-26T12:57:03;93900.19;;;26.67;48.04
7918;BME280;4004;42.624;23.386;2023-06-26T12:59:30;93887.31;;;26.73;48.38
7918;BME280;4004;42.624;23.386;2023-06-26T13:01:57;93904.63;;;26.74;48.15
7918;BME280;4004;42.624;23.386;2023-06-26T13:04:26;93894.53;;;26.71;49.72
7918;BME280;4004;42.624;23.386;2023-06-26T13:06:53;93900.34;;;26.73;49.45
7918;BME280;4004;42.624;23.386;2023-06-26T13:09:20;93905.72;;;26.67;49.90
7918;BME280;4004;42.624;23.386;2023-06-26T13:11:47;93903.59;;;26.53;49.08